createdAt,value
2018-10-07T00:00:57.995Z,993.69
2018-10-07T00:02:09.111Z,993.7
2018-10-07T00:03:19.220Z,993.62
2018-10-07T00:04:29.338Z,993.6
2018-10-07T00:05:39.426Z,993.62
2018-10-07T00:06:49.512Z,993.6
2018-10-07T00:07:59.313Z,993.59
2018-10-07T00:09:09.377Z,993.57
2018-10-07T00:10:19.455Z,993.52
2018-10-07T00:11:29.604Z,993.52
2018-10-07T00:12:39.408Z,993.5
2018-10-07T00:13:49.334Z,993.49
2018-10-07T00:14:59.700Z,993.52
2018-10-07T00:16:09.776Z,993.5
2018-10-07T00:17:19.839Z,993.5
2018-10-07T00:18:29.914Z,993.5
2018-10-07T00:19:39.714Z,993.53
2018-10-07T00:20:49.821Z,993.5
2018-10-07T00:21:59.833Z,993.52
2018-10-07T00:23:09.913Z,993.44
2018-10-07T00:24:19.954Z,993.49
2018-10-07T00:25:30.061Z,993.49
2018-10-07T00:26:40.133Z,993.45
2018-10-07T00:27:50.205Z,993.43
2018-10-07T00:28:59.743Z,993.39
2018-10-07T00:30:09.918Z,993.36
2018-10-07T00:31:19.998Z,993.37
2018-10-07T00:32:29.792Z,993.35
2018-10-07T00:33:40.062Z,993.35
2018-10-07T00:34:50.139Z,993.35
2018-10-07T00:36:01.406Z,993.35
2018-10-07T00:37:11.215Z,993.34
2018-10-07T00:38:21.285Z,993.39
2018-10-07T00:39:31.368Z,993.36
2018-10-07T00:40:41.190Z,993.38
2018-10-07T00:41:51.000Z,993.38
2018-10-07T00:43:03.540Z,993.42
2018-10-07T00:44:13.368Z,993.42
2018-10-07T00:45:23.416Z,993.48
2018-10-07T00:46:33.500Z,993.43
2018-10-07T00:47:43.635Z,993.42
2018-10-07T00:48:53.698Z,993.45
2018-10-07T00:50:05.304Z,993.44
2018-10-07T00:51:14.851Z,993.41
2018-10-07T00:52:24.389Z,993.38
2018-10-07T00:53:34.229Z,993.34
2018-10-07T00:54:44.081Z,993.36
2018-10-07T00:55:54.153Z,993.38
2018-10-07T00:57:04.449Z,993.36
2018-10-07T00:58:14.522Z,993.38
2018-10-07T00:59:24.713Z,993.39
2018-10-07T01:00:34.839Z,993.39
2018-10-07T01:01:44.904Z,993.44
2018-10-07T01:02:54.982Z,993.47
2018-10-07T01:04:05.054Z,993.43
2018-10-07T01:05:14.964Z,993.44
2018-10-07T01:06:25.035Z,993.44
2018-10-07T01:07:35.089Z,993.41
2018-10-07T01:08:45.189Z,993.42
2018-10-07T01:09:54.990Z,993.4
2018-10-07T01:11:05.100Z,993.44
2018-10-07T01:12:15.194Z,993.4
2018-10-07T01:13:24.988Z,993.43
2018-10-07T01:14:34.795Z,993.42
2018-10-07T01:15:44.598Z,993.45
2018-10-07T01:16:54.673Z,993.39
2018-10-07T01:18:05.051Z,993.41
2018-10-07T01:19:15.114Z,993.44
2018-10-07T01:20:25.205Z,993.43
2018-10-07T01:21:35.255Z,993.4
2018-10-07T01:22:45.319Z,993.36
2018-10-07T01:23:55.391Z,993.34
2018-10-07T01:25:07.667Z,993.3
2018-10-07T01:26:17.720Z,993.27
2018-10-07T01:27:30.796Z,993.27
2018-10-07T01:28:40.868Z,993.29
2018-10-07T01:29:50.958Z,993.3
2018-10-07T01:31:03.764Z,993.33
2018-10-07T01:32:13.849Z,993.33
2018-10-07T01:33:23.929Z,993.34
2018-10-07T01:34:33.968Z,993.32
2018-10-07T01:35:44.291Z,993.34
2018-10-07T01:36:54.374Z,993.28
2018-10-07T01:38:04.446Z,993.25
2018-10-07T01:39:14.356Z,993.27
2018-10-07T01:40:24.205Z,993.25
2018-10-07T01:41:33.981Z,993.25
2018-10-07T01:42:44.061Z,993.23
2018-10-07T01:43:57.904Z,993.21
2018-10-07T01:45:58.988Z,993.15
2018-10-07T01:47:10.986Z,993.15
2018-10-07T01:48:21.144Z,993.15
2018-10-07T01:49:31.315Z,993.14
2018-10-07T01:50:40.895Z,993.15
2018-10-07T01:51:50.701Z,993.15
2018-10-07T01:53:03.017Z,993.17
2018-10-07T01:54:13.247Z,993.2
2018-10-07T01:55:23.309Z,993.2
2018-10-07T01:56:33.236Z,993.25
2018-10-07T01:57:43.303Z,993.29
2018-10-07T01:58:53.362Z,993.29
2018-10-07T02:00:03.644Z,993.27
2018-10-07T02:01:13.458Z,993.25
2018-10-07T02:02:23.573Z,993.25
2018-10-07T02:03:33.689Z,993.22
2018-10-07T02:04:43.543Z,993.24
2018-10-07T02:05:53.646Z,993.2
2018-10-07T02:07:03.855Z,993.22
2018-10-07T02:08:14.024Z,993.21
2018-10-07T02:09:23.580Z,993.26
2018-10-07T02:10:33.464Z,993.25
2018-10-07T02:11:43.282Z,993.19
2018-10-07T02:12:53.348Z,993.22
2018-10-07T02:14:03.258Z,993.22
2018-10-07T02:15:13.301Z,993.2
2018-10-07T02:16:23.091Z,993.17
2018-10-07T02:17:32.646Z,993.21
2018-10-07T02:18:42.691Z,993.23
2018-10-07T02:19:52.815Z,993.24
2018-10-07T02:21:02.889Z,993.23
2018-10-07T02:22:13.021Z,993.24
2018-10-07T02:23:23.103Z,993.24
2018-10-07T02:24:33.167Z,993.25
2018-10-07T02:25:43.327Z,993.23
2018-10-07T02:26:53.384Z,993.2
2018-10-07T02:28:04.550Z,993.24
2018-10-07T02:29:14.627Z,993.23
2018-10-07T02:30:24.432Z,993.29
2018-10-07T02:31:34.591Z,993.27
2018-10-07T02:32:44.386Z,993.28
2018-10-07T02:33:54.446Z,993.29
2018-10-07T02:35:06.002Z,993.29
2018-10-07T02:36:15.798Z,993.34
2018-10-07T02:37:25.869Z,993.33
2018-10-07T02:38:35.944Z,993.34
2018-10-07T02:39:46.054Z,993.28
2018-10-07T02:40:56.138Z,993.3
2018-10-07T02:42:06.211Z,993.31
2018-10-07T02:43:16.340Z,993.31
2018-10-07T02:44:26.404Z,993.3
2018-10-07T02:45:36.542Z,993.33
2018-10-07T02:46:46.361Z,993.3
2018-10-07T02:47:56.620Z,993.32
2018-10-07T02:49:06.434Z,993.33
2018-10-07T02:50:16.527Z,993.28
2018-10-07T02:51:26.321Z,993.29
2018-10-07T02:52:36.402Z,993.31
2018-10-07T02:53:46.234Z,993.3
2018-10-07T02:54:56.375Z,993.31
2018-10-07T02:56:06.175Z,993.29
2018-10-07T02:57:16.262Z,993.28
2018-10-07T02:58:26.325Z,993.28
2018-10-07T02:59:36.420Z,993.26
2018-10-07T03:00:46.508Z,993.3
2018-10-07T03:01:56.578Z,993.26
2018-10-07T03:34:42.558Z,993.19
2018-10-07T03:35:52.375Z,993.2
2018-10-07T03:37:02.448Z,993.21
2018-10-07T03:38:12.770Z,993.19
2018-10-07T03:39:23.082Z,993.18
2018-10-07T03:40:33.692Z,993.21
2018-10-07T03:41:43.750Z,993.24
2018-10-07T03:42:53.822Z,993.22
2018-10-07T03:44:03.930Z,993.19
2018-10-07T03:45:13.753Z,993.2
2018-10-07T03:46:23.828Z,993.21
2018-10-07T03:47:33.966Z,993.25
2018-10-07T03:48:43.794Z,993.29
2018-10-07T03:49:53.864Z,993.32
2018-10-07T03:51:03.967Z,993.34
2018-10-07T03:52:14.082Z,993.35
2018-10-07T03:53:24.174Z,993.32
2018-10-07T03:54:34.262Z,993.36
2018-10-07T03:55:44.087Z,993.35
2018-10-07T03:56:54.154Z,993.37
2018-10-07T03:58:05.473Z,993.34
2018-10-07T03:59:15.428Z,993.36
2018-10-07T04:00:25.501Z,993.35
2018-10-07T04:01:35.592Z,993.34
2018-10-07T04:02:45.610Z,993.31
2018-10-07T04:03:55.402Z,993.3
2018-10-07T04:05:06.926Z,993.31
2018-10-07T04:06:17.028Z,993.35
2018-10-07T04:07:26.835Z,993.32
2018-10-07T04:08:36.947Z,993.35
2018-10-07T04:09:47.120Z,993.35
2018-10-07T04:10:57.201Z,993.37
2018-10-07T04:12:07.274Z,993.37
2018-10-07T04:13:17.340Z,993.43
2018-10-07T04:14:27.418Z,993.43
2018-10-07T04:15:37.532Z,993.46
2018-10-07T04:16:47.070Z,993.44
2018-10-07T04:17:57.190Z,993.45
2018-10-07T04:19:07.287Z,993.47
2018-10-07T04:20:17.483Z,993.44
2018-10-07T04:21:27.592Z,993.47
2018-10-07T04:22:37.671Z,993.44
2018-10-07T04:23:47.990Z,993.44
2018-10-07T04:24:58.058Z,993.43
2018-10-07T04:26:10.411Z,993.41
2018-10-07T04:27:20.466Z,993.43
2018-10-07T04:28:30.770Z,993.45
2018-10-07T04:29:40.840Z,993.47
2018-10-07T04:30:50.930Z,993.48
2018-10-07T04:32:02.876Z,993.47
2018-10-07T04:33:12.947Z,993.52
2018-10-07T04:34:22.510Z,993.5
2018-10-07T04:35:32.613Z,993.53
2018-10-07T04:36:42.701Z,993.57
2018-10-07T04:37:52.772Z,993.58
2018-10-07T04:39:03.384Z,993.54
2018-10-07T04:40:13.871Z,993.55
2018-10-07T04:41:24.043Z,993.5
2018-10-07T04:42:34.151Z,993.5
2018-10-07T04:43:43.984Z,993.5
2018-10-07T04:44:54.132Z,993.54
2018-10-07T04:46:04.237Z,993.53
2018-10-07T04:47:14.391Z,993.57
2018-10-07T04:48:24.455Z,993.59
2018-10-07T04:49:34.297Z,993.59
2018-10-07T04:50:44.433Z,993.61
2018-10-07T04:51:54.494Z,993.63
2018-10-07T04:53:04.509Z,993.63
2018-10-07T04:54:14.578Z,993.66
2018-10-07T04:55:24.641Z,993.65
2018-10-07T04:56:34.832Z,993.66
2018-10-07T04:57:44.634Z,993.72
2018-10-07T04:58:54.967Z,993.74
2018-10-07T05:00:06.088Z,993.78
2018-10-07T05:01:15.872Z,993.74
2018-10-07T05:02:25.698Z,993.81
2018-10-07T05:03:35.760Z,993.87
2018-10-07T05:04:46.286Z,993.92
2018-10-07T05:05:56.378Z,993.98
2018-10-07T05:07:06.685Z,993.97
2018-10-07T05:08:16.262Z,993.99
2018-10-07T05:09:26.323Z,994.03
2018-10-07T05:10:36.140Z,994.04
2018-10-07T05:11:46.233Z,994.06
2018-10-07T05:12:56.474Z,994.06
2018-10-07T05:14:06.599Z,994.05
2018-10-07T05:15:16.427Z,994.06
2018-10-07T05:16:26.492Z,994.11
2018-10-07T05:17:36.294Z,994.16
2018-10-07T05:18:46.096Z,994.17
2018-10-07T05:19:55.962Z,994.16
2018-10-07T05:21:06.204Z,994.18
2018-10-07T05:22:16.497Z,994.25
2018-10-07T05:23:26.303Z,994.23
2018-10-07T05:24:36.232Z,994.27
2018-10-07T05:25:46.340Z,994.3
2018-10-07T05:26:56.406Z,994.32
2018-10-07T05:28:06.229Z,994.34
2018-10-07T05:29:15.772Z,994.36
2018-10-07T05:30:25.848Z,994.37
2018-10-07T05:31:35.714Z,994.37
2018-10-07T05:32:45.773Z,994.35
2018-10-07T05:33:55.568Z,994.35
2018-10-07T05:35:08.545Z,994.32
2018-10-07T05:36:18.613Z,994.32
2018-10-07T05:37:28.494Z,994.38
2018-10-07T05:38:38.571Z,994.4
2018-10-07T05:39:49.262Z,994.41
2018-10-07T05:40:58.814Z,994.39
2018-10-07T05:42:08.929Z,994.43
2018-10-07T05:43:19.086Z,994.45
2018-10-07T05:44:29.209Z,994.45
2018-10-07T05:45:39.913Z,994.48
2018-10-07T05:46:49.978Z,994.48
2018-10-07T05:48:00.129Z,994.46
2018-10-07T05:49:10.631Z,994.52
2018-10-07T05:50:20.735Z,994.51
2018-10-07T05:51:30.840Z,994.57
2018-10-07T05:52:40.892Z,994.52
2018-10-07T05:53:51.171Z,994.51
2018-10-07T05:55:03.987Z,994.53
2018-10-07T05:56:14.048Z,994.55
2018-10-07T05:57:24.137Z,994.58
2018-10-07T05:58:34.187Z,994.59
2018-10-07T05:59:43.988Z,994.62
2018-10-07T06:00:53.800Z,994.6
2018-10-07T06:02:03.952Z,994.63
2018-10-07T06:03:14.551Z,994.62
2018-10-07T06:04:24.632Z,994.63
2018-10-07T06:05:34.442Z,994.62
2018-10-07T06:06:44.544Z,994.61
2018-10-07T06:07:54.334Z,994.62
2018-10-07T06:09:04.171Z,994.64
2018-10-07T06:10:14.562Z,994.61
2018-10-07T06:11:24.810Z,994.64
2018-10-07T06:12:34.722Z,994.64
2018-10-07T06:13:44.809Z,994.68
2018-10-07T06:14:54.729Z,994.75
2018-10-07T06:16:05.404Z,994.81
2018-10-07T06:17:15.510Z,994.83
2018-10-07T06:18:25.656Z,994.86
2018-10-07T06:19:35.776Z,994.89
2018-10-07T06:20:45.843Z,994.91
2018-10-07T06:21:55.922Z,994.9
2018-10-07T06:23:06.016Z,994.86
2018-10-07T06:24:16.137Z,994.95
2018-10-07T06:25:26.211Z,994.95
2018-10-07T06:26:36.094Z,994.98
2018-10-07T06:27:46.147Z,995.01
2018-10-07T06:28:56.453Z,995.02
2018-10-07T06:30:06.547Z,995.06
2018-10-07T06:31:16.354Z,995.02
2018-10-07T06:32:26.115Z,995.03
2018-10-07T06:33:36.207Z,995.04
2018-10-07T06:34:46.296Z,994.99
2018-10-07T06:35:56.412Z,994.99
2018-10-07T06:37:06.493Z,994.98
2018-10-07T06:38:16.577Z,994.99
2018-10-07T06:39:26.373Z,995.01
2018-10-07T06:40:35.970Z,995.05
2018-10-07T06:41:46.047Z,995.07
2018-10-07T06:42:56.144Z,995.11
2018-10-07T06:44:06.017Z,995.13
2018-10-07T06:45:16.110Z,995.12
2018-10-07T06:46:26.556Z,995.11
2018-10-07T06:47:36.645Z,995.09
2018-10-07T06:48:46.738Z,995.08
2018-10-07T06:49:56.308Z,995.07
2018-10-07T06:51:06.385Z,995.07
2018-10-07T06:52:16.446Z,995.11
2018-10-07T06:53:26.488Z,995.1
2018-10-07T06:54:36.299Z,995.14
2018-10-07T06:55:46.356Z,995.16
2018-10-07T06:56:56.445Z,995.11
2018-10-07T06:58:06.253Z,995.19
2018-10-07T06:59:16.110Z,995.2
2018-10-07T07:00:26.260Z,995.22
2018-10-07T07:01:36.344Z,995.24
2018-10-07T07:02:46.441Z,995.31
2018-10-07T07:03:56.260Z,995.29
2018-10-07T07:05:06.071Z,995.27
2018-10-07T07:06:15.917Z,995.27
2018-10-07T07:07:25.946Z,995.23
2018-10-07T07:08:36.016Z,995.27
2018-10-07T07:09:45.586Z,995.29
2018-10-07T07:10:55.200Z,995.29
2018-10-07T07:12:05.293Z,995.28
2018-10-07T07:13:15.094Z,995.29
2018-10-07T07:14:25.208Z,995.34
2018-10-07T07:15:35.294Z,995.31
2018-10-07T07:16:45.374Z,995.31
2018-10-07T07:17:55.457Z,995.33
2018-10-07T07:19:05.266Z,995.31
2018-10-07T07:20:15.428Z,995.29
2018-10-07T07:21:25.713Z,995.29
2018-10-07T07:22:35.577Z,995.29
2018-10-07T07:23:45.405Z,995.3
2018-10-07T07:24:55.478Z,995.27
2018-10-07T07:26:05.295Z,995.34
2018-10-07T07:27:15.382Z,995.36
2018-10-07T07:28:25.471Z,995.4
2018-10-07T07:29:35.322Z,995.39
2018-10-07T07:30:45.403Z,995.41
2018-10-07T07:31:55.452Z,995.47
2018-10-07T07:33:05.585Z,995.42
2018-10-07T07:34:15.451Z,995.47
2018-10-07T07:35:25.559Z,995.47
2018-10-07T07:36:35.640Z,995.51
2018-10-07T07:37:45.470Z,995.5
2018-10-07T07:38:55.289Z,995.51
2018-10-07T07:40:05.356Z,995.52
2018-10-07T07:41:15.444Z,995.57
2018-10-07T07:42:25.660Z,995.54
2018-10-07T07:43:36.010Z,995.56
2018-10-07T07:44:46.113Z,995.57
2018-10-07T07:45:56.165Z,995.59
2018-10-07T07:47:08.013Z,995.61
2018-10-07T07:48:18.133Z,995.6
2018-10-07T07:49:28.254Z,995.6
2018-10-07T07:50:38.366Z,995.62
2018-10-07T07:51:48.433Z,995.64
2018-10-07T07:52:58.506Z,995.6
2018-10-07T07:54:08.583Z,995.62
2018-10-07T07:55:18.409Z,995.61
2018-10-07T07:56:28.505Z,995.59
2018-10-07T07:57:38.665Z,995.61
2018-10-07T07:58:48.741Z,995.58
2018-10-07T07:59:58.824Z,995.65
2018-10-07T08:01:08.928Z,995.67
2018-10-07T08:02:19.042Z,995.67
2018-10-07T08:03:29.169Z,995.68
2018-10-07T08:04:38.833Z,995.73
2018-10-07T08:05:48.953Z,995.66
2018-10-07T08:06:59.080Z,995.71
2018-10-07T08:08:09.166Z,995.74
2018-10-07T08:09:19.273Z,995.76
2018-10-07T08:10:29.125Z,995.77
2018-10-07T08:11:39.229Z,995.76
2018-10-07T08:12:49.422Z,995.75
2018-10-07T08:13:59.584Z,995.76
2018-10-07T08:15:09.430Z,995.79
2018-10-07T08:16:19.546Z,995.82
2018-10-07T08:17:29.459Z,995.81
2018-10-07T08:18:39.956Z,995.85
2018-10-07T08:19:49.771Z,995.84
2018-10-07T08:20:59.910Z,995.87
2018-10-07T08:22:09.714Z,995.82
2018-10-07T08:23:19.841Z,995.78
2018-10-07T08:24:30.361Z,995.77
2018-10-07T08:25:40.491Z,995.73
2018-10-07T08:26:50.572Z,995.78
2018-10-07T08:28:03.233Z,995.8
2018-10-07T08:29:13.134Z,995.78
2018-10-07T08:30:23.276Z,995.85
2018-10-07T08:31:33.655Z,995.8
2018-10-07T08:32:43.471Z,995.82
2018-10-07T08:33:53.289Z,995.85
2018-10-07T08:35:03.404Z,995.85
2018-10-07T08:36:13.552Z,995.89
2018-10-07T08:37:23.690Z,995.95
2018-10-07T08:38:33.550Z,995.92
2018-10-07T08:39:43.643Z,995.94
2018-10-07T08:40:53.728Z,995.93
2018-10-07T08:42:03.815Z,995.97
2018-10-07T08:43:13.884Z,995.96
2018-10-07T08:44:23.773Z,995.94
2018-10-07T08:45:33.859Z,995.94
2018-10-07T08:46:43.994Z,995.92
2018-10-07T08:47:54.098Z,995.93
2018-10-07T08:49:04.213Z,995.94
2018-10-07T08:50:14.081Z,995.91
2018-10-07T08:51:24.224Z,995.93
2018-10-07T08:52:34.332Z,995.93
2018-10-07T08:53:44.403Z,995.94
2018-10-07T08:54:54.475Z,995.93
2018-10-07T08:56:04.697Z,995.98
2018-10-07T08:57:15.644Z,995.98
2018-10-07T08:58:25.474Z,995.99
2018-10-07T08:59:35.557Z,995.99
2018-10-07T09:00:45.640Z,995.97
2018-10-07T09:01:55.568Z,995.98
2018-10-07T09:03:05.582Z,995.98
2018-10-07T09:04:15.649Z,996.02
2018-10-07T09:05:25.739Z,996.03
2018-10-07T09:06:35.827Z,996.05
2018-10-07T09:07:46.141Z,996.06
2018-10-07T09:08:56.159Z,996.04
2018-10-07T09:10:08.398Z,996.09
2018-10-07T09:11:18.500Z,996.05
2018-10-07T09:12:28.588Z,996.09
2018-10-07T09:13:38.399Z,996.11
2018-10-07T09:14:48.483Z,996.07
2018-10-07T09:15:58.550Z,996.1
2018-10-07T09:17:10.592Z,996.07
2018-10-07T09:18:20.700Z,996.09
2018-10-07T09:19:31.042Z,996.1
2018-10-07T09:20:41.132Z,996.16
2018-10-07T09:21:51.338Z,996.12
2018-10-07T09:23:02.380Z,996.1
2018-10-07T09:24:12.470Z,996.09
2018-10-07T09:25:22.659Z,996.12
2018-10-07T09:26:32.738Z,996.15
2018-10-07T09:27:42.894Z,996.19
2018-10-07T09:28:52.989Z,996.17
2018-10-07T09:30:05.154Z,996.18
2018-10-07T09:31:14.968Z,996.18
2018-10-07T09:32:25.144Z,996.21
2018-10-07T09:33:35.943Z,996.24
2018-10-07T09:34:45.806Z,996.2
2018-10-07T09:35:55.904Z,996.21
2018-10-07T09:37:06.226Z,996.24
2018-10-07T09:38:15.821Z,996.18
2018-10-07T09:39:25.677Z,996.14
2018-10-07T09:40:36.226Z,996.17
2018-10-07T09:41:46.342Z,996.16
2018-10-07T09:42:56.484Z,996.15
2018-10-07T09:44:06.823Z,996.14
2018-10-07T09:45:16.639Z,996.14
2018-10-07T09:46:26.795Z,996.13
2018-10-07T09:47:36.870Z,996.16
2018-10-07T09:48:46.709Z,996.17
2018-10-07T09:49:56.781Z,996.18
2018-10-07T09:51:06.876Z,996.19
2018-10-07T09:52:17.247Z,996.25
2018-10-07T09:53:27.978Z,996.26
2018-10-07T09:54:38.128Z,996.26
2018-10-07T09:55:48.242Z,996.25
2018-10-07T09:56:58.577Z,996.31
2018-10-07T09:58:08.792Z,996.25
2018-10-07T09:59:19.317Z,996.24
2018-10-07T10:00:29.299Z,996.24
2018-10-07T10:01:39.399Z,996.26
2018-10-07T10:02:49.772Z,996.25
2018-10-07T10:03:59.654Z,996.23
2018-10-07T10:05:10.295Z,996.27
2018-10-07T10:06:20.443Z,996.27
2018-10-07T10:07:30.535Z,996.28
2018-10-07T10:08:40.614Z,996.29
2018-10-07T10:09:50.740Z,996.27
2018-10-07T10:11:00.956Z,996.26
2018-10-07T10:12:11.598Z,996.25
2018-10-07T10:13:21.692Z,996.24
2018-10-07T10:14:31.828Z,996.22
2018-10-07T10:15:41.915Z,996.25
2018-10-07T10:16:51.729Z,996.19
2018-10-07T10:18:01.536Z,996.18
2018-10-07T10:19:11.621Z,996.2
2018-10-07T10:20:21.733Z,996.16
2018-10-07T10:21:31.014Z,996.19
2018-10-07T10:22:41.295Z,996.16
2018-10-07T10:23:51.670Z,996.2
2018-10-07T10:25:01.758Z,996.21
2018-10-07T10:26:11.885Z,996.24
2018-10-07T10:27:21.968Z,996.23
2018-10-07T10:28:32.024Z,996.21
2018-10-07T10:29:41.901Z,996.25
2018-10-07T10:30:51.971Z,996.23
2018-10-07T10:32:01.801Z,996.22
2018-10-07T10:33:11.899Z,996.27
2018-10-07T10:34:21.995Z,996.23
2018-10-07T10:35:32.167Z,996.27
2018-10-07T10:36:42.316Z,996.24
2018-10-07T10:37:52.302Z,996.23
2018-10-07T10:39:03.778Z,996.24
2018-10-07T10:40:13.966Z,996.2
2018-10-07T10:41:24.076Z,996.21
2018-10-07T10:42:34.160Z,996.17
2018-10-07T10:43:43.976Z,996.2
2018-10-07T10:44:54.053Z,996.2
2018-10-07T10:46:04.192Z,996.15
2018-10-07T10:47:14.393Z,996.15
2018-10-07T10:48:24.232Z,996.14
2018-10-07T10:49:34.053Z,996.17
2018-10-07T10:50:44.146Z,996.18
2018-10-07T10:51:54.235Z,996.17
2018-10-07T10:53:04.111Z,996.15
2018-10-07T10:54:14.199Z,996.15
2018-10-07T10:55:24.280Z,996.14
2018-10-07T10:56:34.385Z,996.15
2018-10-07T10:57:44.482Z,996.15
2018-10-07T10:58:54.312Z,996.18
2018-10-07T11:00:04.623Z,996.18
2018-10-07T11:01:14.712Z,996.15
2018-10-07T11:02:24.521Z,996.14
2018-10-07T11:03:34.605Z,996.1
2018-10-07T11:04:44.709Z,996.06
2018-10-07T11:05:54.868Z,996.05
2018-10-07T11:07:05.140Z,996.03
2018-10-07T11:08:15.456Z,996.07
2018-10-07T11:09:25.573Z,996.11
2018-10-07T11:10:35.243Z,996.09
2018-10-07T11:11:45.365Z,996.12
2018-10-07T11:12:55.207Z,996.13
2018-10-07T11:14:05.284Z,996.19
2018-10-07T11:15:15.353Z,996.17
2018-10-07T11:16:25.755Z,996.2
2018-10-07T11:17:35.960Z,996.18
2018-10-07T11:18:46.048Z,996.2
2018-10-07T11:19:56.142Z,996.16
2018-10-07T11:21:06.232Z,996.17
2018-10-07T11:22:16.061Z,996.17
2018-10-07T11:23:26.145Z,996.15
2018-10-07T11:24:36.490Z,996.12
2018-10-07T11:25:46.586Z,996.09
2018-10-07T11:26:56.702Z,996.12
2018-10-07T11:28:06.797Z,996.08
2018-10-07T11:29:16.673Z,996.09
2018-10-07T11:30:26.772Z,996.05
2018-10-07T11:31:36.583Z,996
2018-10-07T11:32:46.673Z,996.05
2018-10-07T11:33:56.775Z,996.03
2018-10-07T11:35:06.921Z,996
2018-10-07T11:36:17.000Z,996.01
2018-10-07T11:37:27.070Z,996.01
2018-10-07T11:38:37.357Z,996.02
2018-10-07T11:39:47.452Z,996
2018-10-07T11:40:57.606Z,995.99
2018-10-07T11:42:08.379Z,996
2018-10-07T11:43:18.483Z,996.07
2018-10-07T11:44:28.812Z,996.04
2018-10-07T11:45:39.195Z,996.01
2018-10-07T11:46:50.085Z,995.98
2018-10-07T11:47:59.923Z,996.02
2018-10-07T11:49:10.958Z,996
2018-10-07T11:50:21.036Z,996
2018-10-07T11:51:31.606Z,996.02
2018-10-07T11:52:41.764Z,995.97
2018-10-07T11:53:52.286Z,995.97
2018-10-07T11:55:02.376Z,995.98
2018-10-07T11:56:12.302Z,995.98
2018-10-07T11:57:22.424Z,995.99
2018-10-07T11:58:32.603Z,995.96
2018-10-07T11:59:42.865Z,995.97
2018-10-07T12:00:52.982Z,995.97
2018-10-07T12:02:03.283Z,995.98
2018-10-07T12:03:13.749Z,996.03
2018-10-07T12:04:23.296Z,995.99
2018-10-07T12:05:33.381Z,996
2018-10-07T12:06:43.499Z,996.02
2018-10-07T12:07:53.585Z,996.02
2018-10-07T12:09:03.674Z,996.04
2018-10-07T12:10:13.925Z,996.04
2018-10-07T12:11:24.220Z,996.04
2018-10-07T12:12:34.085Z,996.06
2018-10-07T12:13:44.199Z,996.06
2018-10-07T12:14:54.281Z,996.06
2018-10-07T12:16:04.441Z,996.04
2018-10-07T12:17:13.758Z,996.04
2018-10-07T12:18:23.626Z,996.04
2018-10-07T12:19:33.511Z,996.05
2018-10-07T12:20:43.602Z,996.02
2018-10-07T12:21:53.850Z,996
2018-10-07T12:23:03.946Z,996.01
2018-10-07T12:24:14.026Z,996.04
2018-10-07T12:25:23.876Z,995.99
2018-10-07T12:26:34.008Z,996.03
2018-10-07T12:27:43.888Z,995.98
2018-10-07T12:28:54.015Z,995.99
2018-10-07T12:30:04.923Z,995.98
2018-10-07T12:31:14.979Z,996.02
2018-10-07T12:32:25.090Z,996.01
2018-10-07T12:33:35.172Z,996
2018-10-07T12:34:45.279Z,996.02
2018-10-07T12:35:55.379Z,995.99
2018-10-07T12:37:05.584Z,995.98
2018-10-07T12:38:15.444Z,995.97
2018-10-07T12:39:25.553Z,995.96
2018-10-07T12:40:35.595Z,995.98
2018-10-07T12:41:45.404Z,995.94
2018-10-07T12:42:55.463Z,995.95
2018-10-07T12:44:05.593Z,995.94
2018-10-07T12:45:15.448Z,995.97
2018-10-07T12:46:25.042Z,995.95
2018-10-07T12:47:34.887Z,995.94
2018-10-07T12:48:44.458Z,995.95
2018-10-07T12:49:54.529Z,995.97
2018-10-07T12:51:06.921Z,995.99
2018-10-07T12:52:16.747Z,995.99
2018-10-07T12:53:26.319Z,996
2018-10-07T12:54:36.618Z,996.01
2018-10-07T12:55:46.754Z,995.99
2018-10-07T12:56:56.893Z,996.01
2018-10-07T12:58:07.108Z,996.01
2018-10-07T12:59:17.190Z,996.04
2018-10-07T13:00:27.282Z,996.04
2018-10-07T13:01:37.138Z,996.04
2018-10-07T13:02:47.012Z,996.11
2018-10-07T13:03:57.108Z,996.08
2018-10-07T13:05:07.206Z,996.07
2018-10-07T13:06:17.480Z,996.11
2018-10-07T13:07:27.589Z,996.08
2018-10-07T13:08:37.519Z,996.08
2018-10-07T13:09:47.594Z,996.06
2018-10-07T13:10:57.704Z,996.06
2018-10-07T13:12:08.450Z,996.1
2018-10-07T13:13:18.793Z,996.12
2018-10-07T13:14:28.954Z,996.13
2018-10-07T13:15:38.811Z,996.15
2018-10-07T13:16:48.649Z,996.2
2018-10-07T13:17:58.749Z,996.21
2018-10-07T13:19:08.888Z,996.19
2018-10-07T13:20:19.705Z,996.21
2018-10-07T13:21:29.897Z,996.22
2018-10-07T13:22:40.026Z,996.21
2018-10-07T13:23:49.875Z,996.24
2018-10-07T13:24:59.214Z,996.26
2018-10-07T13:26:09.699Z,996.22
2018-10-07T13:27:19.844Z,996.25
2018-10-07T13:28:29.496Z,996.26
2018-10-07T13:29:39.624Z,996.24
2018-10-07T13:30:49.751Z,996.26
2018-10-07T13:31:59.644Z,996.21
2018-10-07T13:33:09.738Z,996.24
2018-10-07T13:34:19.589Z,996.24
2018-10-07T13:35:29.698Z,996.28
2018-10-07T13:36:39.853Z,996.25
2018-10-07T13:37:49.757Z,996.25
2018-10-07T13:38:59.843Z,996.24
2018-10-07T13:40:09.947Z,996.24
2018-10-07T13:41:20.016Z,996.23
2018-10-07T13:42:29.848Z,996.24
2018-10-07T13:43:39.523Z,996.2
2018-10-07T13:44:49.359Z,996.21
2018-10-07T13:45:59.190Z,996.18
2018-10-07T13:47:10.944Z,996.2
2018-10-07T13:48:21.039Z,996.22
2018-10-07T13:49:31.176Z,996.19
2018-10-07T13:50:40.988Z,996.16
2018-10-07T13:51:51.093Z,996.2
2018-10-07T13:53:01.191Z,996.24
2018-10-07T13:54:11.325Z,996.24
2018-10-07T13:55:21.481Z,996.24
2018-10-07T13:56:31.559Z,996.26
2018-10-07T13:57:41.412Z,996.23
2018-10-07T13:58:51.520Z,996.24
2018-10-07T14:00:03.262Z,996.24
2018-10-07T14:01:13.398Z,996.26
2018-10-07T14:02:23.498Z,996.24
2018-10-07T14:03:33.451Z,996.24
2018-10-07T14:04:43.878Z,996.28
2018-10-07T14:05:53.949Z,996.29
2018-10-07T14:07:04.091Z,996.27
2018-10-07T14:08:14.193Z,996.27
2018-10-07T14:09:24.108Z,996.28
2018-10-07T14:10:34.217Z,996.32
2018-10-07T14:11:44.329Z,996.3
2018-10-07T14:12:54.478Z,996.32
2018-10-07T14:14:04.304Z,996.34
2018-10-07T14:15:14.416Z,996.32
2018-10-07T14:16:24.254Z,996.34
2018-10-07T14:17:34.099Z,996.34
2018-10-07T14:18:43.973Z,996.39
2018-10-07T14:19:54.118Z,996.4
2018-10-07T14:21:04.247Z,996.37
2018-10-07T14:22:14.351Z,996.38
2018-10-07T14:23:24.460Z,996.41
2018-10-07T14:24:34.367Z,996.37
2018-10-07T14:25:44.220Z,996.39
2018-10-07T14:26:54.054Z,996.4
2018-10-07T14:28:04.215Z,996.4
2018-10-07T14:29:14.274Z,996.39
2018-10-07T14:30:24.490Z,996.37
2018-10-07T14:31:34.698Z,996.4
2018-10-07T14:32:45.046Z,996.41
2018-10-07T14:33:55.132Z,996.43
2018-10-07T14:35:05.257Z,996.41
2018-10-07T14:36:15.551Z,996.46
2018-10-07T14:37:25.601Z,996.45
2018-10-07T14:38:35.658Z,996.51
2018-10-07T14:39:45.571Z,996.56
2018-10-07T14:40:55.444Z,996.53
2018-10-07T14:42:05.594Z,996.58
2018-10-07T14:43:15.707Z,996.54
2018-10-07T14:44:25.552Z,996.59
2018-10-07T14:45:35.385Z,996.58
2018-10-07T14:46:45.459Z,996.64
2018-10-07T14:47:55.612Z,996.6
2018-10-07T14:49:08.324Z,996.62
2018-10-07T14:50:18.831Z,996.66
2018-10-07T14:51:28.940Z,996.67
2018-10-07T14:52:39.024Z,996.69
2018-10-07T14:53:49.238Z,996.67
2018-10-07T14:54:59.424Z,996.71
2018-10-07T14:56:09.903Z,996.69
2018-10-07T14:57:19.775Z,996.67
2018-10-07T14:58:29.872Z,996.68
2018-10-07T14:59:40.011Z,996.7
2018-10-07T15:00:50.096Z,996.7
2018-10-07T15:02:00.609Z,996.7
2018-10-07T15:03:10.780Z,996.72
2018-10-07T15:04:20.899Z,996.78
2018-10-07T15:05:31.084Z,996.78
2018-10-07T15:06:41.246Z,996.77
2018-10-07T15:07:51.347Z,996.85
2018-10-07T15:09:03.243Z,996.85
2018-10-07T15:10:13.627Z,996.88
2018-10-07T15:11:23.733Z,996.88